sensor_id;sensor_type;location;lat;lon;timestamp;P1;durP1;ratioP1;P2;durP2;ratioP2
13588;SDS011;6865;52.552;13.434;2023-11-19T00:01:34;6.50;;;5.40;;
13588;SDS011;6865;52.552;13.434;2023-11-19T00:04:01;6.87;;;5.37;;
13588;SDS011;6865;52.552;13.434;2023-11-19T00:06:29;6.73;;;5.30;;
13588;SDS011;6865;52.552;13.434;2023-11-19T00:08:55;6.93;;;5.40;;
13588;SDS011;6865;52.552;13.434;2023-11-19T00:11:22;6.10;;;4.90;;
13588;SDS011;6865;52.552;13.434;2023-11-19T00:13:48;6.80;;;5.40;;
13588;SDS011;6865;52.552;13.434;2023-11-19T00:16:15;6.27;;;4.90;;
13588;SDS011;6865;52.552;13.434;2023-11-19T00:18:42;6.00;;;5.00;;
13588;SDS011;6865;52.552;13.434;2023-11-19T00:21:09;5.43;;;4.73;;
13588;SDS011;6865;52.552;13.434;2023-11-19T00:23:37;7.20;;;5.00;;
13588;SDS011;6865;52.552;13.434;2023-11-19T00:26:04;7.40;;;5.23;;
13588;SDS011;6865;52.552;13.434;2023-11-19T00:28:32;7.17;;;5.40;;
13588;SDS011;6865;52.552;13.434;2023-11-19T00:31:00;9.20;;;5.53;;
13588;SDS011;6865;52.552;13.434;2023-11-19T00:33:27;5.93;;;5.13;;
13588;SDS011;6865;52.552;13.434;2023-11-19T00:35:54;6.70;;;5.23;;
13588;SDS011;6865;52.552;13.434;2023-11-19T00:38:22;6.57;;;5.47;;
13588;SDS011;6865;52.552;13.434;2023-11-19T00:40:48;6.27;;;5.03;;
13588;SDS011;6865;52.552;13.434;2023-11-19T00:43:15;7.00;;;5.47;;
13588;SDS011;6865;52.552;13.434;2023-11-19T00:45:42;6.73;;;5.37;;
13588;SDS011;6865;52.552;13.434;2023-11-19T00:48:09;7.93;;;5.10;;
13588;SDS011;6865;52.552;13.434;2023-11-19T00:50:36;5.57;;;4.93;;
13588;SDS011;6865;52.552;13.434;2023-11-19T00:53:04;6.53;;;5.07;;
13588;SDS011;6865;52.552;13.434;2023-11-19T00:55:31;6.73;;;5.53;;
13588;SDS011;6865;52.552;13.434;2023-11-19T00:57:58;5.97;;;5.07;;
13588;SDS011;6865;52.552;13.434;2023-11-19T01:00:25;7.53;;;4.67;;
13588;SDS011;6865;52.552;13.434;2023-11-19T01:02:53;6.87;;;4.73;;
13588;SDS011;6865;52.552;13.434;2023-11-19T01:05:20;7.10;;;4.57;;
13588;SDS011;6865;52.552;13.434;2023-11-19T01:07:50;6.13;;;5.10;;
13588;SDS011;6865;52.552;13.434;2023-11-19T01:10:19;6.20;;;4.93;;
13588;SDS011;6865;52.552;13.434;2023-11-19T01:12:46;7.10;;;4.80;;
13588;SDS011;6865;52.552;13.434;2023-11-19T01:15:13;6.70;;;4.60;;
13588;SDS011;6865;52.552;13.434;2023-11-19T01:17:40;5.90;;;4.43;;
13588;SDS011;6865;52.552;13.434;2023-11-19T01:20:18;5.83;;;4.53;;
13588;SDS011;6865;52.552;13.434;2023-11-19T01:22:46;6.00;;;4.60;;
13588;SDS011;6865;52.552;13.434;2023-11-19T01:25:14;5.37;;;4.77;;
13588;SDS011;6865;52.552;13.434;2023-11-19T01:27:41;5.97;;;4.37;;
13588;SDS011;6865;52.552;13.434;2023-11-19T01:30:08;5.67;;;4.40;;
13588;SDS011;6865;52.552;13.434;2023-11-19T01:32:42;7.17;;;4.80;;
13588;SDS011;6865;52.552;13.434;2023-11-19T01:35:08;6.40;;;4.57;;
13588;SDS011;6865;52.552;13.434;2023-11-19T01:37:35;5.97;;;4.90;;
13588;SDS011;6865;52.552;13.434;2023-11-19T01:40:03;6.47;;;4.90;;
13588;SDS011;6865;52.552;13.434;2023-11-19T01:42:37;6.30;;;4.80;;
13588;SDS011;6865;52.552;13.434;2023-11-19T01:45:05;5.63;;;4.50;;
13588;SDS011;6865;52.552;13.434;2023-11-19T01:47:35;6.10;;;4.40;;
13588;SDS011;6865;52.552;13.434;2023-11-19T01:50:03;6.13;;;4.77;;
13588;SDS011;6865;52.552;13.434;2023-11-19T01:52:34;6.53;;;4.40;;
13588;SDS011;6865;52.552;13.434;2023-11-19T01:55:06;5.13;;;4.40;;
13588;SDS011;6865;52.552;13.434;2023-11-19T01:57:36;6.87;;;4.60;;
13588;SDS011;6865;52.552;13.434;2023-11-19T02:00:05;6.37;;;4.73;;
13588;SDS011;6865;52.552;13.434;2023-11-19T02:02:33;6.97;;;4.80;;
13588;SDS011;6865;52.552;13.434;2023-11-19T02:05:00;5.40;;;4.27;;
13588;SDS011;6865;52.552;13.434;2023-11-19T02:07:27;6.50;;;4.50;;
13588;SDS011;6865;52.552;13.434;2023-11-19T02:09:54;6.57;;;5.10;;
13588;SDS011;6865;52.552;13.434;2023-11-19T02:12:20;5.23;;;4.73;;
13588;SDS011;6865;52.552;13.434;2023-11-19T02:14:47;5.87;;;4.33;;
13588;SDS011;6865;52.552;13.434;2023-11-19T02:17:26;6.17;;;4.67;;
13588;SDS011;6865;52.552;13.434;2023-11-19T02:19:54;6.57;;;4.50;;
13588;SDS011;6865;52.552;13.434;2023-11-19T02:22:20;6.77;;;4.90;;
13588;SDS011;6865;52.552;13.434;2023-11-19T02:24:48;6.67;;;4.87;;
13588;SDS011;6865;52.552;13.434;2023-11-19T02:27:21;4.90;;;4.40;;
13588;SDS011;6865;52.552;13.434;2023-11-19T02:30:11;6.33;;;4.20;;
13588;SDS011;6865;52.552;13.434;2023-11-19T02:32:41;6.60;;;4.43;;
13588;SDS011;6865;52.552;13.434;2023-11-19T02:35:08;5.53;;;4.20;;
13588;SDS011;6865;52.552;13.434;2023-11-19T02:37:35;5.60;;;4.17;;
13588;SDS011;6865;52.552;13.434;2023-11-19T02:40:02;5.43;;;4.60;;
13588;SDS011;6865;52.552;13.434;2023-11-19T02:42:30;6.07;;;3.80;;
13588;SDS011;6865;52.552;13.434;2023-11-19T02:44:57;7.43;;;4.50;;
13588;SDS011;6865;52.552;13.434;2023-11-19T02:47:24;6.50;;;4.37;;
13588;SDS011;6865;52.552;13.434;2023-11-19T02:49:50;5.17;;;3.97;;
13588;SDS011;6865;52.552;13.434;2023-11-19T02:52:19;6.67;;;4.17;;
13588;SDS011;6865;52.552;13.434;2023-11-19T02:54:45;4.70;;;3.90;;
13588;SDS011;6865;52.552;13.434;2023-11-19T02:57:12;5.00;;;4.00;;
13588;SDS011;6865;52.552;13.434;2023-11-19T02:59:47;5.73;;;4.33;;
13588;SDS011;6865;52.552;13.434;2023-11-19T03:02:15;4.70;;;3.90;;
13588;SDS011;6865;52.552;13.434;2023-11-19T03:04:44;5.67;;;4.30;;
13588;SDS011;6865;52.552;13.434;2023-11-19T03:07:12;5.33;;;4.27;;
13588;SDS011;6865;52.552;13.434;2023-11-19T03:09:39;4.57;;;3.77;;
13588;SDS011;6865;52.552;13.434;2023-11-19T03:12:07;4.60;;;3.70;;
13588;SDS011;6865;52.552;13.434;2023-11-19T03:14:33;4.30;;;3.60;;
13588;SDS011;6865;52.552;13.434;2023-11-19T03:17:03;3.80;;;3.23;;
13588;SDS011;6865;52.552;13.434;2023-11-19T03:19:31;3.60;;;3.27;;
13588;SDS011;6865;52.552;13.434;2023-11-19T03:21:58;3.87;;;3.33;;
13588;SDS011;6865;52.552;13.434;2023-11-19T03:24:25;5.57;;;3.67;;
13588;SDS011;6865;52.552;13.434;2023-11-19T03:26:52;4.97;;;3.33;;
13588;SDS011;6865;52.552;13.434;2023-11-19T03:29:19;5.23;;;3.67;;
13588;SDS011;6865;52.552;13.434;2023-11-19T03:31:45;5.67;;;3.63;;
13588;SDS011;6865;52.552;13.434;2023-11-19T03:34:12;4.23;;;3.23;;
13588;SDS011;6865;52.552;13.434;2023-11-19T03:36:39;4.27;;;3.27;;
13588;SDS011;6865;52.552;13.434;2023-11-19T03:39:06;4.00;;;3.57;;
13588;SDS011;6865;52.552;13.434;2023-11-19T03:41:33;5.13;;;3.73;;
13588;SDS011;6865;52.552;13.434;2023-11-19T03:44:02;4.10;;;3.70;;
13588;SDS011;6865;52.552;13.434;2023-11-19T03:46:29;4.90;;;3.77;;
13588;SDS011;6865;52.552;13.434;2023-11-19T03:48:56;4.17;;;3.73;;
13588;SDS011;6865;52.552;13.434;2023-11-19T03:51:23;4.87;;;4.13;;
13588;SDS011;6865;52.552;13.434;2023-11-19T03:53:50;6.57;;;4.17;;
13588;SDS011;6865;52.552;13.434;2023-11-19T03:56:16;5.23;;;4.17;;
13588;SDS011;6865;52.552;13.434;2023-11-19T03:58:43;5.93;;;4.60;;
13588;SDS011;6865;52.552;13.434;2023-11-19T04:01:13;4.97;;;3.87;;
13588;SDS011;6865;52.552;13.434;2023-11-19T04:03:40;5.30;;;4.50;;
13588;SDS011;6865;52.552;13.434;2023-11-19T04:06:16;7.80;;;5.00;;
13588;SDS011;6865;52.552;13.434;2023-11-19T04:08:43;5.57;;;4.43;;
13588;SDS011;6865;52.552;13.434;2023-11-19T04:11:10;6.57;;;4.43;;
13588;SDS011;6865;52.552;13.434;2023-11-19T04:13:37;6.47;;;4.70;;
13588;SDS011;6865;52.552;13.434;2023-11-19T04:16:04;6.50;;;5.17;;
13588;SDS011;6865;52.552;13.434;2023-11-19T04:18:31;7.27;;;4.87;;
13588;SDS011;6865;52.552;13.434;2023-11-19T04:20:58;5.40;;;4.33;;
13588;SDS011;6865;52.552;13.434;2023-11-19T04:23:24;7.03;;;5.07;;
13588;SDS011;6865;52.552;13.434;2023-11-19T04:25:51;6.17;;;4.93;;
13588;SDS011;6865;52.552;13.434;2023-11-19T04:28:18;5.80;;;4.67;;
13588;SDS011;6865;52.552;13.434;2023-11-19T04:30:45;6.57;;;5.03;;
13588;SDS011;6865;52.552;13.434;2023-11-19T04:33:11;5.97;;;5.20;;
13588;SDS011;6865;52.552;13.434;2023-11-19T04:35:38;6.93;;;5.20;;
13588;SDS011;6865;52.552;13.434;2023-11-19T04:38:04;6.67;;;4.97;;
13588;SDS011;6865;52.552;13.434;2023-11-19T04:40:31;6.27;;;4.80;;
13588;SDS011;6865;52.552;13.434;2023-11-19T04:43:00;6.57;;;5.20;;
13588;SDS011;6865;52.552;13.434;2023-11-19T04:45:26;5.73;;;5.13;;
13588;SDS011;6865;52.552;13.434;2023-11-19T04:47:53;7.00;;;4.80;;
13588;SDS011;6865;52.552;13.434;2023-11-19T04:50:20;7.17;;;5.77;;
13588;SDS011;6865;52.552;13.434;2023-11-19T04:52:47;6.20;;;5.20;;
13588;SDS011;6865;52.552;13.434;2023-11-19T04:55:14;7.17;;;5.33;;
13588;SDS011;6865;52.552;13.434;2023-11-19T04:57:41;7.40;;;5.60;;
13588;SDS011;6865;52.552;13.434;2023-11-19T05:00:09;8.87;;;5.87;;
13588;SDS011;6865;52.552;13.434;2023-11-19T05:02:40;7.50;;;6.00;;
13588;SDS011;6865;52.552;13.434;2023-11-19T05:05:07;7.13;;;5.60;;
13588;SDS011;6865;52.552;13.434;2023-11-19T05:07:35;6.73;;;5.63;;
13588;SDS011;6865;52.552;13.434;2023-11-19T05:10:02;6.73;;;5.43;;
13588;SDS011;6865;52.552;13.434;2023-11-19T05:12:29;8.50;;;6.10;;
13588;SDS011;6865;52.552;13.434;2023-11-19T05:14:57;6.43;;;5.40;;
13588;SDS011;6865;52.552;13.434;2023-11-19T05:17:24;8.50;;;5.80;;
13588;SDS011;6865;52.552;13.434;2023-11-19T05:19:51;7.80;;;5.70;;
13588;SDS011;6865;52.552;13.434;2023-11-19T05:22:17;5.93;;;5.30;;
13588;SDS011;6865;52.552;13.434;2023-11-19T05:24:44;8.10;;;5.83;;
13588;SDS011;6865;52.552;13.434;2023-11-19T05:27:11;6.97;;;5.53;;
13588;SDS011;6865;52.552;13.434;2023-11-19T05:29:39;7.43;;;5.93;;
13588;SDS011;6865;52.552;13.434;2023-11-19T05:32:06;6.50;;;5.30;;
13588;SDS011;6865;52.552;13.434;2023-11-19T05:34:33;6.27;;;5.33;;
13588;SDS011;6865;52.552;13.434;2023-11-19T05:37:00;7.20;;;5.40;;
13588;SDS011;6865;52.552;13.434;2023-11-19T05:39:27;7.00;;;5.87;;
13588;SDS011;6865;52.552;13.434;2023-11-19T05:41:54;7.13;;;5.30;;
13588;SDS011;6865;52.552;13.434;2023-11-19T05:44:21;8.33;;;6.23;;
13588;SDS011;6865;52.552;13.434;2023-11-19T05:46:47;7.07;;;5.83;;
13588;SDS011;6865;52.552;13.434;2023-11-19T05:49:14;5.93;;;5.17;;
13588;SDS011;6865;52.552;13.434;2023-11-19T05:51:41;7.07;;;5.00;;
13588;SDS011;6865;52.552;13.434;2023-11-19T05:54:08;8.67;;;4.90;;
13588;SDS011;6865;52.552;13.434;2023-11-19T05:56:36;6.37;;;5.30;;
13588;SDS011;6865;52.552;13.434;2023-11-19T05:59:03;5.63;;;4.77;;
13588;SDS011;6865;52.552;13.434;2023-11-19T06:01:34;6.47;;;5.30;;
13588;SDS011;6865;52.552;13.434;2023-11-19T06:04:01;6.07;;;4.90;;
13588;SDS011;6865;52.552;13.434;2023-11-19T06:06:28;6.13;;;5.40;;
13588;SDS011;6865;52.552;13.434;2023-11-19T06:08:55;5.50;;;4.87;;
13588;SDS011;6865;52.552;13.434;2023-11-19T06:11:22;7.50;;;5.70;;
13588;SDS011;6865;52.552;13.434;2023-11-19T06:13:49;6.67;;;5.77;;
13588;SDS011;6865;52.552;13.434;2023-11-19T06:16:17;6.17;;;5.37;;
13588;SDS011;6865;52.552;13.434;2023-11-19T06:18:44;5.80;;;5.10;;
13588;SDS011;6865;52.552;13.434;2023-11-19T06:21:12;6.37;;;5.10;;
13588;SDS011;6865;52.552;13.434;2023-11-19T06:23:39;5.60;;;5.00;;
13588;SDS011;6865;52.552;13.434;2023-11-19T06:26:05;6.80;;;4.83;;
13588;SDS011;6865;52.552;13.434;2023-11-19T06:28:32;6.07;;;4.63;;
13588;SDS011;6865;52.552;13.434;2023-11-19T06:30:59;6.57;;;4.40;;
13588;SDS011;6865;52.552;13.434;2023-11-19T06:33:26;5.93;;;4.90;;
13588;SDS011;6865;52.552;13.434;2023-11-19T06:35:53;5.50;;;4.93;;
13588;SDS011;6865;52.552;13.434;2023-11-19T06:38:20;5.23;;;4.67;;
13588;SDS011;6865;52.552;13.434;2023-11-19T06:40:47;5.60;;;4.93;;
13588;SDS011;6865;52.552;13.434;2023-11-19T06:43:18;5.43;;;4.80;;
13588;SDS011;6865;52.552;13.434;2023-11-19T06:45:45;6.77;;;4.97;;
13588;SDS011;6865;52.552;13.434;2023-11-19T06:48:12;6.27;;;4.37;;
13588;SDS011;6865;52.552;13.434;2023-11-19T06:50:38;4.57;;;3.93;;
13588;SDS011;6865;52.552;13.434;2023-11-19T06:53:05;4.87;;;4.33;;
13588;SDS011;6865;52.552;13.434;2023-11-19T06:55:36;7.17;;;4.20;;
13588;SDS011;6865;52.552;13.434;2023-11-19T06:58:03;5.43;;;4.47;;
13588;SDS011;6865;52.552;13.434;2023-11-19T07:00:29;4.93;;;3.83;;
13588;SDS011;6865;52.552;13.434;2023-11-19T07:02:59;4.63;;;4.07;;
13588;SDS011;6865;52.552;13.434;2023-11-19T07:05:26;4.87;;;4.20;;
13588;SDS011;6865;52.552;13.434;2023-11-19T07:07:53;6.17;;;4.70;;
13588;SDS011;6865;52.552;13.434;2023-11-19T07:10:20;5.03;;;4.30;;
13588;SDS011;6865;52.552;13.434;2023-11-19T07:12:47;4.97;;;4.47;;
13588;SDS011;6865;52.552;13.434;2023-11-19T07:15:16;4.40;;;3.90;;
13588;SDS011;6865;52.552;13.434;2023-11-19T07:17:43;5.17;;;4.03;;
13588;SDS011;6865;52.552;13.434;2023-11-19T07:20:11;5.53;;;4.23;;
13588;SDS011;6865;52.552;13.434;2023-11-19T07:22:42;5.30;;;4.80;;
13588;SDS011;6865;52.552;13.434;2023-11-19T07:25:14;6.20;;;4.23;;
13588;SDS011;6865;52.552;13.434;2023-11-19T07:27:41;4.90;;;4.20;;
13588;SDS011;6865;52.552;13.434;2023-11-19T07:30:09;4.93;;;4.30;;
13588;SDS011;6865;52.552;13.434;2023-11-19T07:32:35;4.20;;;3.80;;
13588;SDS011;6865;52.552;13.434;2023-11-19T07:35:05;5.40;;;3.83;;
13588;SDS011;6865;52.552;13.434;2023-11-19T07:37:32;4.97;;;4.20;;
13588;SDS011;6865;52.552;13.434;2023-11-19T07:39:59;4.20;;;3.80;;
13588;SDS011;6865;52.552;13.434;2023-11-19T07:42:25;4.50;;;3.90;;
13588;SDS011;6865;52.552;13.434;2023-11-19T07:44:52;5.17;;;4.20;;
13588;SDS011;6865;52.552;13.434;2023-11-19T07:47:20;6.10;;;4.57;;
13588;SDS011;6865;52.552;13.434;2023-11-19T07:49:50;4.80;;;4.30;;
13588;SDS011;6865;52.552;13.434;2023-11-19T07:52:16;4.10;;;3.70;;
13588;SDS011;6865;52.552;13.434;2023-11-19T07:54:46;6.40;;;5.20;;
13588;SDS011;6865;52.552;13.434;2023-11-19T07:57:13;4.90;;;4.17;;
13588;SDS011;6865;52.552;13.434;2023-11-19T07:59:39;5.73;;;5.13;;
13588;SDS011;6865;52.552;13.434;2023-11-19T08:02:06;5.73;;;5.13;;
13588;SDS011;6865;52.552;13.434;2023-11-19T08:04:33;5.00;;;4.50;;
13588;SDS011;6865;52.552;13.434;2023-11-19T08:07:01;5.33;;;4.20;;
13588;SDS011;6865;52.552;13.434;2023-11-19T08:09:28;5.10;;;4.60;;
13588;SDS011;6865;52.552;13.434;2023-11-19T08:11:54;5.17;;;4.57;;
13588;SDS011;6865;52.552;13.434;2023-11-19T08:14:22;4.90;;;4.40;;
13588;SDS011;6865;52.552;13.434;2023-11-19T08:16:49;5.20;;;4.67;;
13588;SDS011;6865;52.552;13.434;2023-11-19T08:19:16;5.47;;;4.77;;
13588;SDS011;6865;52.552;13.434;2023-11-19T08:21:42;5.87;;;4.67;;
13588;SDS011;6865;52.552;13.434;2023-11-19T08:24:09;5.43;;;4.77;;
13588;SDS011;6865;52.552;13.434;2023-11-19T08:26:36;6.43;;;4.70;;
13588;SDS011;6865;52.552;13.434;2023-11-19T08:29:03;6.87;;;4.97;;
13588;SDS011;6865;52.552;13.434;2023-11-19T08:31:29;5.23;;;4.73;;
13588;SDS011;6865;52.552;13.434;2023-11-19T08:33:56;6.17;;;5.13;;
13588;SDS011;6865;52.552;13.434;2023-11-19T08:36:23;7.37;;;4.50;;
13588;SDS011;6865;52.552;13.434;2023-11-19T08:38:49;5.20;;;4.47;;
13588;SDS011;6865;52.552;13.434;2023-11-19T08:41:17;6.07;;;4.90;;
13588;SDS011;6865;52.552;13.434;2023-11-19T08:43:45;5.93;;;4.73;;
13588;SDS011;6865;52.552;13.434;2023-11-19T08:46:12;6.90;;;5.30;;
13588;SDS011;6865;52.552;13.434;2023-11-19T08:48:39;6.07;;;5.47;;
13588;SDS011;6865;52.552;13.434;2023-11-19T08:51:07;7.97;;;5.40;;
13588;SDS011;6865;52.552;13.434;2023-11-19T08:53:34;8.20;;;6.17;;
13588;SDS011;6865;52.552;13.434;2023-11-19T08:56:01;7.17;;;5.83;;
13588;SDS011;6865;52.552;13.434;2023-11-19T08:58:29;5.90;;;5.30;;
13588;SDS011;6865;52.552;13.434;2023-11-19T09:00:56;8.50;;;5.50;;
13588;SDS011;6865;52.552;13.434;2023-11-19T09:03:24;6.43;;;5.30;;
13588;SDS011;6865;52.552;13.434;2023-11-19T09:05:53;6.13;;;5.03;;
13588;SDS011;6865;52.552;13.434;2023-11-19T09:08:19;6.73;;;5.40;;
13588;SDS011;6865;52.552;13.434;2023-11-19T09:10:46;6.10;;;5.27;;
13588;SDS011;6865;52.552;13.434;2023-11-19T09:13:13;6.27;;;4.97;;
13588;SDS011;6865;52.552;13.434;2023-11-19T09:15:39;5.23;;;4.43;;
13588;SDS011;6865;52.552;13.434;2023-11-19T09:18:07;6.93;;;5.00;;
13588;SDS011;6865;52.552;13.434;2023-11-19T09:20:34;8.37;;;4.80;;
13588;SDS011;6865;52.552;13.434;2023-11-19T09:23:05;5.47;;;4.83;;
13588;SDS011;6865;52.552;13.434;2023-11-19T09:25:32;5.20;;;4.60;;
13588;SDS011;6865;52.552;13.434;2023-11-19T09:28:02;5.97;;;4.67;;
13588;SDS011;6865;52.552;13.434;2023-11-19T09:30:29;6.60;;;5.07;;
13588;SDS011;6865;52.552;13.434;2023-11-19T09:32:55;6.87;;;5.40;;
13588;SDS011;6865;52.552;13.434;2023-11-19T09:35:22;6.90;;;5.57;;
13588;SDS011;6865;52.552;13.434;2023-11-19T09:37:49;7.23;;;5.27;;
13588;SDS011;6865;52.552;13.434;2023-11-19T09:40:16;6.03;;;4.87;;
13588;SDS011;6865;52.552;13.434;2023-11-19T09:42:44;5.70;;;4.50;;
13588;SDS011;6865;52.552;13.434;2023-11-19T09:45:15;6.10;;;4.50;;
13588;SDS011;6865;52.552;13.434;2023-11-19T09:47:43;4.93;;;4.30;;
13588;SDS011;6865;52.552;13.434;2023-11-19T09:50:18;5.43;;;4.47;;
13588;SDS011;6865;52.552;13.434;2023-11-19T09:52:46;8.67;;;5.10;;
13588;SDS011;6865;52.552;13.434;2023-11-19T09:55:13;7.70;;;4.60;;
13588;SDS011;6865;52.552;13.434;2023-11-19T09:57:41;7.80;;;4.10;;
13588;SDS011;6865;52.552;13.434;2023-11-19T10:00:08;7.17;;;4.37;;
13588;SDS011;6865;52.552;13.434;2023-11-19T10:02:37;5.73;;;4.43;;
13588;SDS011;6865;52.552;13.434;2023-11-19T10:05:08;5.70;;;4.67;;
13588;SDS011;6865;52.552;13.434;2023-11-19T10:07:36;6.33;;;3.90;;
13588;SDS011;6865;52.552;13.434;2023-11-19T10:10:04;6.57;;;4.27;;
13588;SDS011;6865;52.552;13.434;2023-11-19T10:12:31;6.53;;;4.27;;
13588;SDS011;6865;52.552;13.434;2023-11-19T10:14:58;6.20;;;4.20;;
13588;SDS011;6865;52.552;13.434;2023-11-19T10:17:28;6.37;;;4.47;;
13588;SDS011;6865;52.552;13.434;2023-11-19T10:19:58;8.13;;;4.77;;
13588;SDS011;6865;52.552;13.434;2023-11-19T10:22:25;7.97;;;4.20;;
13588;SDS011;6865;52.552;13.434;2023-11-19T10:24:54;8.47;;;4.07;;
13588;SDS011;6865;52.552;13.434;2023-11-19T10:27:23;6.07;;;3.60;;
13588;SDS011;6865;52.552;13.434;2023-11-19T10:29:51;7.27;;;3.60;;
13588;SDS011;6865;52.552;13.434;2023-11-19T10:32:18;5.80;;;3.43;;
13588;SDS011;6865;52.552;13.434;2023-11-19T10:34:52;7.37;;;3.13;;
13588;SDS011;6865;52.552;13.434;2023-11-19T10:37:31;5.83;;;3.70;;
13588;SDS011;6865;52.552;13.434;2023-11-19T10:39:59;5.73;;;3.83;;
13588;SDS011;6865;52.552;13.434;2023-11-19T10:42:25;5.80;;;3.53;;
13588;SDS011;6865;52.552;13.434;2023-11-19T10:44:52;6.03;;;3.90;;
13588;SDS011;6865;52.552;13.434;2023-11-19T10:47:19;5.83;;;2.83;;
13588;SDS011;6865;52.552;13.434;2023-11-19T10:50:04;10.40;;;3.80;;
13588;SDS011;6865;52.552;13.434;2023-11-19T10:52:32;6.90;;;2.90;;
13588;SDS011;6865;52.552;13.434;2023-11-19T10:55:00;8.17;;;3.00;;
13588;SDS011;6865;52.552;13.434;2023-11-19T10:57:28;8.03;;;3.03;;
13588;SDS011;6865;52.552;13.434;2023-11-19T11:00:00;7.57;;;2.90;;
13588;SDS011;6865;52.552;13.434;2023-11-19T11:02:32;8.90;;;3.20;;
13588;SDS011;6865;52.552;13.434;2023-11-19T11:05:01;8.60;;;2.97;;
13588;SDS011;6865;52.552;13.434;2023-11-19T11:07:29;10.57;;;3.40;;
13588;SDS011;6865;52.552;13.434;2023-11-19T11:10:06;9.90;;;3.13;;
13588;SDS011;6865;52.552;13.434;2023-11-19T11:12:36;11.43;;;4.03;;
13588;SDS011;6865;52.552;13.434;2023-11-19T11:15:08;11.70;;;3.27;;
13588;SDS011;6865;52.552;13.434;2023-11-19T11:17:40;13.67;;;3.50;;
13588;SDS011;6865;52.552;13.434;2023-11-19T11:20:09;14.27;;;3.30;;
13588;SDS011;6865;52.552;13.434;2023-11-19T11:22:49;11.83;;;4.10;;
13588;SDS011;6865;52.552;13.434;2023-11-19T11:25:48;10.20;;;3.60;;
13588;SDS011;6865;52.552;13.434;2023-11-19T11:31:08;8.53;;;2.93;;
13588;SDS011;6865;52.552;13.434;2023-11-19T11:33:55;7.83;;;2.73;;
13588;SDS011;6865;52.552;13.434;2023-11-19T11:39:45;9.87;;;3.47;;
13588;SDS011;6865;52.552;13.434;2023-11-19T11:50:09;12.80;;;3.73;;
13588;SDS011;6865;52.552;13.434;2023-11-19T11:55:25;13.00;;;3.90;;
13588;SDS011;6865;52.552;13.434;2023-11-19T11:57:51;13.63;;;3.63;;
13588;SDS011;6865;52.552;13.434;2023-11-19T12:00:29;13.87;;;3.73;;
13588;SDS011;6865;52.552;13.434;2023-11-19T12:02:59;15.33;;;3.43;;
13588;SDS011;6865;52.552;13.434;2023-11-19T12:05:27;14.53;;;4.10;;
13588;SDS011;6865;52.552;13.434;2023-11-19T12:07:54;16.10;;;3.57;;
13588;SDS011;6865;52.552;13.434;2023-11-19T12:10:24;12.17;;;3.50;;
13588;SDS011;6865;52.552;13.434;2023-11-19T12:12:58;14.13;;;3.63;;
13588;SDS011;6865;52.552;13.434;2023-11-19T12:15:25;14.97;;;4.10;;
13588;SDS011;6865;52.552;13.434;2023-11-19T12:17:54;17.53;;;4.83;;
13588;SDS011;6865;52.552;13.434;2023-11-19T12:20:24;13.23;;;3.87;;
13588;SDS011;6865;52.552;13.434;2023-11-19T12:22:55;13.97;;;4.13;;
13588;SDS011;6865;52.552;13.434;2023-11-19T12:25:22;14.23;;;3.80;;
13588;SDS011;6865;52.552;13.434;2023-11-19T12:27:50;16.27;;;4.53;;
13588;SDS011;6865;52.552;13.434;2023-11-19T12:30:21;14.90;;;4.80;;
13588;SDS011;6865;52.552;13.434;2023-11-19T12:32:50;14.10;;;3.90;;
13588;SDS011;6865;52.552;13.434;2023-11-19T12:35:19;12.93;;;4.37;;
13588;SDS011;6865;52.552;13.434;2023-11-19T12:37:46;13.80;;;3.83;;
13588;SDS011;6865;52.552;13.434;2023-11-19T12:40:15;16.57;;;4.20;;
13588;SDS011;6865;52.552;13.434;2023-11-19T12:42:43;17.07;;;4.20;;
13588;SDS011;6865;52.552;13.434;2023-11-19T12:45:11;13.17;;;3.87;;
13588;SDS011;6865;52.552;13.434;2023-11-19T12:47:42;12.83;;;4.30;;
13588;SDS011;6865;52.552;13.434;2023-11-19T12:50:16;15.67;;;4.10;;
13588;SDS011;6865;52.552;13.434;2023-11-19T12:52:55;17.53;;;4.03;;
13588;SDS011;6865;52.552;13.434;2023-11-19T12:55:26;16.37;;;4.27;;
13588;SDS011;6865;52.552;13.434;2023-11-19T12:57:56;21.13;;;3.80;;
13588;SDS011;6865;52.552;13.434;2023-11-19T13:00:25;15.53;;;4.50;;
13588;SDS011;6865;52.552;13.434;2023-11-19T13:02:53;19.90;;;4.73;;
13588;SDS011;6865;52.552;13.434;2023-11-19T13:05:23;19.33;;;4.53;;
13588;SDS011;6865;52.552;13.434;2023-11-19T13:07:58;20.70;;;5.00;;
13588;SDS011;6865;52.552;13.434;2023-11-19T13:10:29;18.67;;;4.87;;
13588;SDS011;6865;52.552;13.434;2023-11-19T13:13:08;17.33;;;4.40;;
13588;SDS011;6865;52.552;13.434;2023-11-19T13:15:35;13.87;;;4.27;;
13588;SDS011;6865;52.552;13.434;2023-11-19T13:18:02;12.43;;;3.77;;
13588;SDS011;6865;52.552;13.434;2023-11-19T13:20:29;15.13;;;4.20;;
13588;SDS011;6865;52.552;13.434;2023-11-19T13:22:59;17.60;;;4.67;;
13588;SDS011;6865;52.552;13.434;2023-11-19T13:25:28;15.73;;;4.20;;
13588;SDS011;6865;52.552;13.434;2023-11-19T13:27:56;18.13;;;3.73;;
13588;SDS011;6865;52.552;13.434;2023-11-19T13:30:23;19.43;;;4.53;;
13588;SDS011;6865;52.552;13.434;2023-11-19T13:32:53;15.83;;;3.87;;
13588;SDS011;6865;52.552;13.434;2023-11-19T13:35:23;14.30;;;3.97;;
13588;SDS011;6865;52.552;13.434;2023-11-19T13:37:49;17.83;;;4.33;;
13588;SDS011;6865;52.552;13.434;2023-11-19T13:40:18;18.70;;;4.53;;
13588;SDS011;6865;52.552;13.434;2023-11-19T13:42:45;24.93;;;6.30;;
13588;SDS011;6865;52.552;13.434;2023-11-19T13:45:12;17.73;;;4.77;;
13588;SDS011;6865;52.552;13.434;2023-11-19T13:47:44;18.03;;;4.73;;
13588;SDS011;6865;52.552;13.434;2023-11-19T13:50:12;20.00;;;5.00;;
13588;SDS011;6865;52.552;13.434;2023-11-19T13:52:41;21.30;;;4.50;;
13588;SDS011;6865;52.552;13.434;2023-11-19T13:55:09;26.07;;;5.27;;
13588;SDS011;6865;52.552;13.434;2023-11-19T13:57:37;15.10;;;4.30;;
13588;SDS011;6865;52.552;13.434;2023-11-19T14:00:05;21.17;;;4.60;;
13588;SDS011;6865;52.552;13.434;2023-11-19T14:02:37;20.53;;;4.90;;
13588;SDS011;6865;52.552;13.434;2023-11-19T14:05:03;18.27;;;4.57;;
13588;SDS011;6865;52.552;13.434;2023-11-19T14:07:31;20.30;;;4.60;;
13588;SDS011;6865;52.552;13.434;2023-11-19T14:09:59;22.10;;;4.83;;
13588;SDS011;6865;52.552;13.434;2023-11-19T14:12:25;18.73;;;4.93;;
13588;SDS011;6865;52.552;13.434;2023-11-19T14:14:52;24.00;;;5.07;;
13588;SDS011;6865;52.552;13.434;2023-11-19T14:17:19;17.70;;;5.00;;
13588;SDS011;6865;52.552;13.434;2023-11-19T14:19:46;18.60;;;4.67;;
13588;SDS011;6865;52.552;13.434;2023-11-19T14:22:13;20.53;;;5.37;;
13588;SDS011;6865;52.552;13.434;2023-11-19T14:24:39;22.57;;;5.80;;
13588;SDS011;6865;52.552;13.434;2023-11-19T14:27:08;27.87;;;5.70;;
13588;SDS011;6865;52.552;13.434;2023-11-19T14:29:36;20.37;;;5.17;;
13588;SDS011;6865;52.552;13.434;2023-11-19T14:32:03;18.53;;;4.53;;
13588;SDS011;6865;52.552;13.434;2023-11-19T14:34:30;14.93;;;4.90;;
13588;SDS011;6865;52.552;13.434;2023-11-19T14:36:58;21.10;;;5.53;;
13588;SDS011;6865;52.552;13.434;2023-11-19T14:39:25;24.77;;;5.30;;
13588;SDS011;6865;52.552;13.434;2023-11-19T14:41:52;17.07;;;5.07;;
13588;SDS011;6865;52.552;13.434;2023-11-19T14:44:24;23.87;;;5.37;;
13588;SDS011;6865;52.552;13.434;2023-11-19T14:46:50;24.27;;;5.50;;
13588;SDS011;6865;52.552;13.434;2023-11-19T14:49:17;23.90;;;5.17;;
13588;SDS011;6865;52.552;13.434;2023-11-19T14:51:44;25.80;;;5.47;;
13588;SDS011;6865;52.552;13.434;2023-11-19T14:54:14;19.30;;;5.37;;
13588;SDS011;6865;52.552;13.434;2023-11-19T14:56:42;22.63;;;5.10;;
13588;SDS011;6865;52.552;13.434;2023-11-19T14:59:09;19.10;;;5.00;;
13588;SDS011;6865;52.552;13.434;2023-11-19T15:01:35;20.87;;;4.87;;
13588;SDS011;6865;52.552;13.434;2023-11-19T15:04:03;18.53;;;4.53;;
13588;SDS011;6865;52.552;13.434;2023-11-19T15:06:32;25.07;;;5.60;;
13588;SDS011;6865;52.552;13.434;2023-11-19T15:09:00;24.57;;;5.30;;